Hauptseite
METAR-TAF:

METAR-TAF

Flughäfen :

Bad Vöslau, Österreich

Flugplatz Vöslau-Kottingbrunn

Breite: 47-57-52N, Länge: 016-15-34E, Höhe: 233 m

Beobachtung

Neuester Wetterbericht von vor 10 Stunden und 54 Minuten, um 18:00 UTC
Wind 5 kt aus Ost/Südost
Temperatur 21°C
Luftfeuchtigkeit 43%
Luftdruck

METAR: LOAV 231800Z 12005KT 30KM FEW060CU 21/08

Zeit: 06:54 (04:54 UTC)

Prognose

Neuester Wetterbericht von vor 17 Stunden und 29 Minuten, um 11:25 UTC
Gültige Prognose vom 23 um 12 UTC bis 23 um 21 UTC
Wind 8 kt aus Ost/Südost
Sichtweite 10 km oder mehr
Leicht bewölkt in der Höhe von 6000 ft

TAF: LOAV 231125Z 2312/2321 12008KT 9999 FEW060

Wetterbeobachtungen und Prognosen von mehr als 4000 Flughäfen (METAR und TAF Bericht).

Die verfügbaren Stationen werden durch gelbe und rote Markierungen auf der Karte dargestellt.

Führen Sie die Maus auf sie, um den Namen der Station zu sehen.

Darauf klicken, um die Beobachtung von Wetterbeobachtungen und Prognosen zu sehen.

Um die Karte zu ändern : klicken Sie auf den grünen Tasten mit einem schwarzen Kreuz Zum Vergrößern, auf den grünen Button mit einem Gedankenstrich zu verkleinern, oder auf die grünen Pfeile für benachbarte Karten.


METAR-TAF: